sensor_id;sensor_type;location;lat;lon;timestamp;P1;durP1;ratioP1;P2;durP2;ratioP2
43311;SDS011;30041;48.300;16.352;2023-04-01T00:00:20;0.80;;;0.40;;
43311;SDS011;30041;48.300;16.352;2023-04-01T00:02:46;0.50;;;0.47;;
43311;SDS011;30041;48.300;16.352;2023-04-01T00:05:12;0.88;;;0.45;;
43311;SDS011;30041;48.300;16.352;2023-04-01T00:07:38;0.93;;;0.40;;
43311;SDS011;30041;48.300;16.352;2023-04-01T00:10:05;0.40;;;0.30;;
43311;SDS011;30041;48.300;16.352;2023-04-01T00:12:31;0.40;;;0.40;;
43311;SDS011;30041;48.300;16.352;2023-04-01T00:14:57;0.70;;;0.38;;
43311;SDS011;30041;48.300;16.352;2023-04-01T00:17:23;0.60;;;0.40;;
43311;SDS011;30041;48.300;16.352;2023-04-01T00:19:48;1.58;;;0.52;;
43311;SDS011;30041;48.300;16.352;2023-04-01T00:22:14;0.60;;;0.32;;
43311;SDS011;30041;48.300;16.352;2023-04-01T00:24:40;0.57;;;0.40;;
43311;SDS011;30041;48.300;16.352;2023-04-01T00:27:06;0.40;;;0.30;;
43311;SDS011;30041;48.300;16.352;2023-04-01T00:29:31;0.82;;;0.40;;
43311;SDS011;30041;48.300;16.352;2023-04-01T00:31:57;0.47;;;0.32;;
43311;SDS011;30041;48.300;16.352;2023-04-01T00:34:23;0.50;;;0.40;;
43311;SDS011;30041;48.300;16.352;2023-04-01T00:36:49;0.70;;;0.30;;
43311;SDS011;30041;48.300;16.352;2023-04-01T00:39:16;1.30;;;0.30;;
43311;SDS011;30041;48.300;16.352;2023-04-01T00:41:41;0.60;;;0.47;;
43311;SDS011;30041;48.300;16.352;2023-04-01T00:46:46;0.45;;;0.30;;
43311;SDS011;30041;48.300;16.352;2023-04-01T00:49:12;0.75;;;0.30;;
43311;SDS011;30041;48.300;16.352;2023-04-01T00:51:39;0.95;;;0.45;;
43311;SDS011;30041;48.300;16.352;2023-04-01T00:54:05;0.40;;;0.25;;
43311;SDS011;30041;48.300;16.352;2023-04-01T00:56:35;0.30;;;0.30;;
43311;SDS011;30041;48.300;16.352;2023-04-01T00:59:14;1.02;;;0.40;;
43311;SDS011;30041;48.300;16.352;2023-04-01T01:01:46;0.17;;;0.17;;
43311;SDS011;30041;48.300;16.352;2023-04-01T01:04:22;0.63;;;0.30;;
43311;SDS011;30041;48.300;16.352;2023-04-01T01:07:32;0.50;;;0.38;;
43311;SDS011;30041;48.300;16.352;2023-04-01T01:10:04;0.40;;;0.20;;
43311;SDS011;30041;48.300;16.352;2023-04-01T01:15:30;0.63;;;0.30;;
43311;SDS011;30041;48.300;16.352;2023-04-01T01:18:02;0.30;;;0.30;;
43311;SDS011;30041;48.300;16.352;2023-04-01T01:29:11;0.30;;;0.20;;
43311;SDS011;30041;48.300;16.352;2023-04-01T01:37:14;0.50;;;0.30;;
43311;SDS011;30041;48.300;16.352;2023-04-01T01:39:43;0.30;;;0.20;;
43311;SDS011;30041;48.300;16.352;2023-04-01T01:42:13;0.38;;;0.20;;
43311;SDS011;30041;48.300;16.352;2023-04-01T01:44:41;0.50;;;0.38;;
43311;SDS011;30041;48.300;16.352;2023-04-01T01:47:10;0.32;;;0.30;;
43311;SDS011;30041;48.300;16.352;2023-04-01T01:49:36;0.17;;;0.15;;
43311;SDS011;30041;48.300;16.352;2023-04-01T01:52:04;0.65;;;0.35;;
43311;SDS011;30041;48.300;16.352;2023-04-01T01:54:30;0.63;;;0.30;;
43311;SDS011;30041;48.300;16.352;2023-04-01T01:56:58;0.20;;;0.20;;
43311;SDS011;30041;48.300;16.352;2023-04-01T01:59:29;0.75;;;0.28;;
43311;SDS011;30041;48.300;16.352;2023-04-01T02:01:57;0.30;;;0.20;;
43311;SDS011;30041;48.300;16.352;2023-04-01T02:04:24;0.63;;;0.20;;
43311;SDS011;30041;48.300;16.352;2023-04-01T02:06:58;0.35;;;0.20;;
43311;SDS011;30041;48.300;16.352;2023-04-01T02:09:27;0.30;;;0.30;;
43311;SDS011;30041;48.300;16.352;2023-04-01T02:11:56;0.22;;;0.10;;
43311;SDS011;30041;48.300;16.352;2023-04-01T02:14:26;0.70;;;0.30;;
43311;SDS011;30041;48.300;16.352;2023-04-01T02:17:18;0.38;;;0.20;;
43311;SDS011;30041;48.300;16.352;2023-04-01T02:19:48;0.28;;;0.20;;
43311;SDS011;30041;48.300;16.352;2023-04-01T02:22:20;0.35;;;0.20;;
43311;SDS011;30041;48.300;16.352;2023-04-01T02:24:49;0.45;;;0.20;;
43311;SDS011;30041;48.300;16.352;2023-04-01T02:27:17;0.10;;;0.10;;
43311;SDS011;30041;48.300;16.352;2023-04-01T02:29:44;0.22;;;0.20;;
43311;SDS011;30041;48.300;16.352;2023-04-01T02:32:10;0.38;;;0.10;;
43311;SDS011;30041;48.300;16.352;2023-04-01T02:34:37;0.22;;;0.20;;
43311;SDS011;30041;48.300;16.352;2023-04-01T02:37:03;0.60;;;0.30;;
43311;SDS011;30041;48.300;16.352;2023-04-01T02:39:29;0.22;;;0.20;;
43311;SDS011;30041;48.300;16.352;2023-04-01T02:41:55;0.25;;;0.20;;
43311;SDS011;30041;48.300;16.352;2023-04-01T02:44:21;0.30;;;0.17;;
43311;SDS011;30041;48.300;16.352;2023-04-01T02:46:47;0.57;;;0.20;;
43311;SDS011;30041;48.300;16.352;2023-04-01T02:49:12;0.30;;;0.10;;
43311;SDS011;30041;48.300;16.352;2023-04-01T02:51:37;0.10;;;0.10;;
43311;SDS011;30041;48.300;16.352;2023-04-01T02:54:03;0.20;;;0.10;;
43311;SDS011;30041;48.300;16.352;2023-04-01T02:56:29;0.15;;;0.15;;
43311;SDS011;30041;48.300;16.352;2023-04-01T02:58:54;0.50;;;0.20;;
43311;SDS011;30041;48.300;16.352;2023-04-01T03:01:21;0.40;;;0.10;;
43311;SDS011;30041;48.300;16.352;2023-04-01T03:03:47;0.45;;;0.25;;
43311;SDS011;30041;48.300;16.352;2023-04-01T03:06:13;0.70;;;0.30;;
43311;SDS011;30041;48.300;16.352;2023-04-01T03:08:40;0.10;;;0.10;;
43311;SDS011;30041;48.300;16.352;2023-04-01T03:11:05;0.40;;;0.20;;
43311;SDS011;30041;48.300;16.352;2023-04-01T03:13:32;0.60;;;0.22;;
43311;SDS011;30041;48.300;16.352;2023-04-01T03:15:57;0.20;;;0.20;;
43311;SDS011;30041;48.300;16.352;2023-04-01T03:18:23;0.50;;;0.25;;
43311;SDS011;30041;48.300;16.352;2023-04-01T03:20:48;0.13;;;0.13;;
43311;SDS011;30041;48.300;16.352;2023-04-01T03:23:14;0.10;;;0.10;;
43311;SDS011;30041;48.300;16.352;2023-04-01T03:25:39;0.38;;;0.25;;
43311;SDS011;30041;48.300;16.352;2023-04-01T03:28:05;0.20;;;0.10;;
43311;SDS011;30041;48.300;16.352;2023-04-01T03:30:30;0.00;;;0.00;;
43311;SDS011;30041;48.300;16.352;2023-04-01T03:32:56;0.38;;;0.20;;
43311;SDS011;30041;48.300;16.352;2023-04-01T03:35:22;0.13;;;0.10;;
43311;SDS011;30041;48.300;16.352;2023-04-01T03:37:48;0.52;;;0.22;;
43311;SDS011;30041;48.300;16.352;2023-04-01T03:40:15;0.17;;;0.10;;
43311;SDS011;30041;48.300;16.352;2023-04-01T03:42:41;0.10;;;0.10;;
43311;SDS011;30041;48.300;16.352;2023-04-01T03:45:07;0.20;;;0.10;;
43311;SDS011;30041;48.300;16.352;2023-04-01T03:47:32;0.47;;;0.20;;
43311;SDS011;30041;48.300;16.352;2023-04-01T03:49:58;0.10;;;0.10;;
43311;SDS011;30041;48.300;16.352;2023-04-01T03:52:24;0.30;;;0.10;;
43311;SDS011;30041;48.300;16.352;2023-04-01T03:54:49;0.40;;;0.20;;
43311;SDS011;30041;48.300;16.352;2023-04-01T03:57:15;0.20;;;0.13;;
43311;SDS011;30041;48.300;16.352;2023-04-01T03:59:40;0.20;;;0.20;;
43311;SDS011;30041;48.300;16.352;2023-04-01T04:02:06;0.20;;;0.10;;
43311;SDS011;30041;48.300;16.352;2023-04-01T04:04:31;0.60;;;0.17;;
43311;SDS011;30041;48.300;16.352;2023-04-01T04:06:57;2.05;;;0.20;;
43311;SDS011;30041;48.300;16.352;2023-04-01T04:09:23;0.10;;;0.10;;
43311;SDS011;30041;48.300;16.352;2023-04-01T04:11:48;0.10;;;0.00;;
43311;SDS011;30041;48.300;16.352;2023-04-01T04:14:14;0.25;;;0.13;;
43311;SDS011;30041;48.300;16.352;2023-04-01T04:16:40;0.22;;;0.10;;
43311;SDS011;30041;48.300;16.352;2023-04-01T04:19:06;0.30;;;0.20;;
43311;SDS011;30041;48.300;16.352;2023-04-01T04:21:31;0.00;;;0.00;;
43311;SDS011;30041;48.300;16.352;2023-04-01T04:23:58;0.30;;;0.10;;
43311;SDS011;30041;48.300;16.352;2023-04-01T04:26:24;0.25;;;0.13;;
43311;SDS011;30041;48.300;16.352;2023-04-01T04:28:50;0.10;;;0.10;;
43311;SDS011;30041;48.300;16.352;2023-04-01T04:31:19;0.10;;;0.10;;
43311;SDS011;30041;48.300;16.352;2023-04-01T04:33:45;0.00;;;0.00;;
43311;SDS011;30041;48.300;16.352;2023-04-01T04:36:11;0.52;;;0.10;;
43311;SDS011;30041;48.300;16.352;2023-04-01T04:38:36;6.13;;;0.63;;
43311;SDS011;30041;48.300;16.352;2023-04-01T04:41:02;5.93;;;1.17;;
43311;SDS011;30041;48.300;16.352;2023-04-01T04:43:27;6.80;;;0.95;;
43311;SDS011;30041;48.300;16.352;2023-04-01T04:45:53;9.80;;;1.02;;
43311;SDS011;30041;48.300;16.352;2023-04-01T04:48:18;5.82;;;1.23;;
43311;SDS011;30041;48.300;16.352;2023-04-01T04:50:47;5.13;;;0.93;;
43311;SDS011;30041;48.300;16.352;2023-04-01T04:53:15;8.23;;;0.82;;
43311;SDS011;30041;48.300;16.352;2023-04-01T04:55:42;8.95;;;1.33;;
43311;SDS011;30041;48.300;16.352;2023-04-01T04:58:11;10.35;;;1.23;;
43311;SDS011;30041;48.300;16.352;2023-04-01T05:00:37;11.07;;;1.23;;
43311;SDS011;30041;48.300;16.352;2023-04-01T05:03:03;5.78;;;1.17;;
43311;SDS011;30041;48.300;16.352;2023-04-01T05:05:28;4.95;;;0.88;;
43311;SDS011;30041;48.300;16.352;2023-04-01T05:07:54;10.90;;;1.63;;
43311;SDS011;30041;48.300;16.352;2023-04-01T05:10:19;7.95;;;1.25;;
43311;SDS011;30041;48.300;16.352;2023-04-01T05:12:45;15.13;;;1.42;;
43311;SDS011;30041;48.300;16.352;2023-04-01T05:15:11;10.57;;;1.30;;
43311;SDS011;30041;48.300;16.352;2023-04-01T05:17:36;6.22;;;1.20;;
43311;SDS011;30041;48.300;16.352;2023-04-01T05:20:02;8.75;;;1.45;;
43311;SDS011;30041;48.300;16.352;2023-04-01T05:22:28;9.02;;;1.30;;
43311;SDS011;30041;48.300;16.352;2023-04-01T05:24:54;5.57;;;0.93;;
43311;SDS011;30041;48.300;16.352;2023-04-01T05:27:19;7.82;;;1.30;;
43311;SDS011;30041;48.300;16.352;2023-04-01T05:29:45;12.07;;;1.35;;
43311;SDS011;30041;48.300;16.352;2023-04-01T05:32:11;4.60;;;1.10;;
43311;SDS011;30041;48.300;16.352;2023-04-01T05:34:36;7.53;;;1.20;;
43311;SDS011;30041;48.300;16.352;2023-04-01T05:37:02;8.40;;;1.00;;
43311;SDS011;30041;48.300;16.352;2023-04-01T05:39:27;9.45;;;1.48;;
43311;SDS011;30041;48.300;16.352;2023-04-01T05:41:53;8.80;;;1.40;;
43311;SDS011;30041;48.300;16.352;2023-04-01T05:44:19;9.00;;;1.10;;
43311;SDS011;30041;48.300;16.352;2023-04-01T05:46:44;7.53;;;1.10;;
